Airfield :
LOGIN :

Register | Disclaimer

   EN    FR    IT 

 










Legend :    VFR   Marginal VFR   IFR   Intensive IFR   Very Intensive IFR
Visi :
Ceiling :
>= 8 km
>= 3000ft
5 to 8 km
1000 to 3000 ft
1500m to 5 km
500 to 1000 ft
800 to 1500m
200 to 500 ft
< 800m
< 200 ft
Symbols :   Thunderstorms  Fog  Heavy snow  Heavy precipitations  Wind > 20 kt
SIGMETs :     Misc.  Thunderstorms  Icing  Turbulence  Mountain Waves  Volcanic Ashes






- Airport Elevation : 355 ft
- IATA code : VBS


LIPO - Montichiari - Brescia

CURRENT METAR :
  • 280650Z AUTO 29003KT //// // BKN080 00/00 Q1020

EXPIRED METARs :
  • 280550Z AUTO 16002KT //// // SCT078/// 00/00 Q1020
  • 280520Z AUTO 34007KT //// // SCT002 SCT078 00/00 Q1020
  • 280450Z AUTO 01003KT 340V070 //// R32/0300N // VV001 M00/M00 Q1020
  • 280420Z AUTO 16004KT 130V210 //// R32/0550D // SCT002 M00/M00 Q1020

TAF TAF LIPO
Valid from the 28 at 06:00 until the 29 at 06:00 UTC


280500Z 2806/2906 VRB05KT 1500 BR BKN060
TEMPO 2806/2808 0600 FG BKN005
BECMG 2808/2810 6000



MET'MAP, your aeronautical weather chart ! - Copyright ORBIFLY December 2007 - Disclaimer

ORBIFLY MET'MAP TEAM :

Programming & Development : Alexandra Zaïnal
Concept & original design : Baudouin d'Aumeries
Assistance for programming : Marc-Olivier Méhu
Technical & hardware support : Manuel Goepfert

Contact : metmap@orbifly.com




SOURCES & CREDITS :

   NOAA